sensor_id;sensor_type;location;lat;lon;timestamp;P1;durP1;ratioP1;P2;durP2;ratioP2
21251;SDS011;10784;50.578;17.878;2024-02-04T00:00:07;5.20;;;2.38;;
21251;SDS011;10784;50.578;17.878;2024-02-04T00:02:44;6.35;;;3.92;;
21251;SDS011;10784;50.578;17.878;2024-02-04T00:05:17;3.13;;;2.42;;
21251;SDS011;10784;50.578;17.878;2024-02-04T00:07:50;10.90;;;3.00;;
21251;SDS011;10784;50.578;17.878;2024-02-04T00:10:24;4.00;;;2.40;;
21251;SDS011;10784;50.578;17.878;2024-02-04T00:12:57;7.50;;;2.42;;
21251;SDS011;10784;50.578;17.878;2024-02-04T00:15:30;5.32;;;2.60;;
21251;SDS011;10784;50.578;17.878;2024-02-04T00:18:03;5.18;;;2.17;;
21251;SDS011;10784;50.578;17.878;2024-02-04T00:20:36;6.05;;;2.92;;
21251;SDS011;10784;50.578;17.878;2024-02-04T00:23:09;3.90;;;1.95;;
21251;SDS011;10784;50.578;17.878;2024-02-04T00:25:42;6.68;;;2.70;;
21251;SDS011;10784;50.578;17.878;2024-02-04T00:28:15;3.83;;;2.13;;
21251;SDS011;10784;50.578;17.878;2024-02-04T00:30:48;3.78;;;2.42;;
21251;SDS011;10784;50.578;17.878;2024-02-04T00:33:27;3.78;;;2.03;;
21251;SDS011;10784;50.578;17.878;2024-02-04T00:36:01;2.42;;;1.80;;
21251;SDS011;10784;50.578;17.878;2024-02-04T00:38:34;4.45;;;2.33;;
21251;SDS011;10784;50.578;17.878;2024-02-04T00:41:07;2.92;;;2.28;;
21251;SDS011;10784;50.578;17.878;2024-02-04T00:43:40;2.72;;;1.88;;
21251;SDS011;10784;50.578;17.878;2024-02-04T00:46:13;3.17;;;2.08;;
21251;SDS011;10784;50.578;17.878;2024-02-04T00:48:46;6.28;;;2.50;;
21251;SDS011;10784;50.578;17.878;2024-02-04T00:51:19;7.60;;;2.78;;
21251;SDS011;10784;50.578;17.878;2024-02-04T00:53:52;3.88;;;2.22;;
21251;SDS011;10784;50.578;17.878;2024-02-04T00:56:26;2.88;;;2.03;;
21251;SDS011;10784;50.578;17.878;2024-02-04T00:58:59;5.30;;;2.13;;
21251;SDS011;10784;50.578;17.878;2024-02-04T01:01:32;6.85;;;2.60;;
21251;SDS011;10784;50.578;17.878;2024-02-04T01:04:06;4.35;;;2.42;;
21251;SDS011;10784;50.578;17.878;2024-02-04T01:06:39;4.07;;;2.40;;
21251;SDS011;10784;50.578;17.878;2024-02-04T01:09:28;3.80;;;2.45;;
21251;SDS011;10784;50.578;17.878;2024-02-04T01:12:03;2.97;;;1.92;;
21251;SDS011;10784;50.578;17.878;2024-02-04T01:14:35;2.92;;;2.00;;
21251;SDS011;10784;50.578;17.878;2024-02-04T01:17:08;2.22;;;2.03;;
21251;SDS011;10784;50.578;17.878;2024-02-04T01:19:41;6.45;;;2.72;;
21251;SDS011;10784;50.578;17.878;2024-02-04T01:22:14;3.38;;;1.83;;
21251;SDS011;10784;50.578;17.878;2024-02-04T01:28:08;3.95;;;1.60;;
21251;SDS011;10784;50.578;17.878;2024-02-04T01:30:42;2.35;;;1.77;;
21251;SDS011;10784;50.578;17.878;2024-02-04T01:33:15;24.05;;;2.08;;
21251;SDS011;10784;50.578;17.878;2024-02-04T01:35:48;4.90;;;1.50;;
21251;SDS011;10784;50.578;17.878;2024-02-04T01:38:20;3.58;;;1.48;;
21251;SDS011;10784;50.578;17.878;2024-02-04T01:40:53;2.28;;;2.03;;
21251;SDS011;10784;50.578;17.878;2024-02-04T01:43:26;1.10;;;0.95;;
21251;SDS011;10784;50.578;17.878;2024-02-04T01:45:59;1.55;;;1.45;;
21251;SDS011;10784;50.578;17.878;2024-02-04T01:48:35;0.73;;;0.73;;
21251;SDS011;10784;50.578;17.878;2024-02-04T01:51:08;1.02;;;0.77;;
21251;SDS011;10784;50.578;17.878;2024-02-04T01:53:42;1.13;;;0.60;;
21251;SDS011;10784;50.578;17.878;2024-02-04T01:56:16;1.02;;;0.60;;
21251;SDS011;10784;50.578;17.878;2024-02-04T01:58:49;1.50;;;0.90;;
21251;SDS011;10784;50.578;17.878;2024-02-04T02:01:22;0.50;;;0.50;;
21251;SDS011;10784;50.578;17.878;2024-02-04T02:03:56;0.60;;;0.60;;
21251;SDS011;10784;50.578;17.878;2024-02-04T02:06:29;1.02;;;0.85;;
21251;SDS011;10784;50.578;17.878;2024-02-04T02:09:03;0.77;;;0.70;;
21251;SDS011;10784;50.578;17.878;2024-02-04T02:14:14;0.90;;;0.70;;
21251;SDS011;10784;50.578;17.878;2024-02-04T02:16:48;0.40;;;0.40;;
21251;SDS011;10784;50.578;17.878;2024-02-04T02:24:50;0.90;;;0.77;;
21251;SDS011;10784;50.578;17.878;2024-02-04T02:27:23;0.82;;;0.82;;
21251;SDS011;10784;50.578;17.878;2024-02-04T02:29:56;1.23;;;1.00;;
21251;SDS011;10784;50.578;17.878;2024-02-04T02:32:29;0.80;;;0.80;;
21251;SDS011;10784;50.578;17.878;2024-02-04T02:35:02;1.23;;;1.00;;
21251;SDS011;10784;50.578;17.878;2024-02-04T02:37:36;1.00;;;0.90;;
21251;SDS011;10784;50.578;17.878;2024-02-04T02:42:46;1.65;;;1.10;;
21251;SDS011;10784;50.578;17.878;2024-02-04T02:45:20;1.10;;;0.98;;
21251;SDS011;10784;50.578;17.878;2024-02-04T02:47:54;2.10;;;1.30;;
21251;SDS011;10784;50.578;17.878;2024-02-04T02:50:28;2.60;;;1.90;;
21251;SDS011;10784;50.578;17.878;2024-02-04T02:53:01;3.25;;;2.08;;
21251;SDS011;10784;50.578;17.878;2024-02-04T02:55:34;2.58;;;2.08;;
21251;SDS011;10784;50.578;17.878;2024-02-04T02:58:07;3.30;;;1.48;;
21251;SDS011;10784;50.578;17.878;2024-02-04T03:00:40;2.83;;;1.73;;
21251;SDS011;10784;50.578;17.878;2024-02-04T03:03:16;3.45;;;1.92;;
21251;SDS011;10784;50.578;17.878;2024-02-04T03:05:49;2.45;;;1.55;;
21251;SDS011;10784;50.578;17.878;2024-02-04T03:08:22;6.28;;;2.28;;
21251;SDS011;10784;50.578;17.878;2024-02-04T03:10:55;1.35;;;1.20;;
21251;SDS011;10784;50.578;17.878;2024-02-04T03:13:28;3.15;;;2.17;;
21251;SDS011;10784;50.578;17.878;2024-02-04T03:16:03;1.77;;;1.67;;
21251;SDS011;10784;50.578;17.878;2024-02-04T03:18:36;2.15;;;1.65;;
21251;SDS011;10784;50.578;17.878;2024-02-04T03:21:13;2.58;;;1.65;;
21251;SDS011;10784;50.578;17.878;2024-02-04T03:23:46;1.55;;;1.40;;
21251;SDS011;10784;50.578;17.878;2024-02-04T03:26:19;7.68;;;1.70;;
21251;SDS011;10784;50.578;17.878;2024-02-04T03:28:53;2.97;;;1.38;;
21251;SDS011;10784;50.578;17.878;2024-02-04T03:31:26;3.53;;;1.88;;
21251;SDS011;10784;50.578;17.878;2024-02-04T03:34:00;2.75;;;1.52;;
21251;SDS011;10784;50.578;17.878;2024-02-04T03:36:33;1.63;;;1.50;;
21251;SDS011;10784;50.578;17.878;2024-02-04T03:39:06;1.33;;;1.23;;
21251;SDS011;10784;50.578;17.878;2024-02-04T03:41:39;1.58;;;0.88;;
21251;SDS011;10784;50.578;17.878;2024-02-04T03:44:12;1.38;;;1.27;;
21251;SDS011;10784;50.578;17.878;2024-02-04T03:46:49;1.13;;;1.02;;
21251;SDS011;10784;50.578;17.878;2024-02-04T03:49:23;1.83;;;1.60;;
21251;SDS011;10784;50.578;17.878;2024-02-04T03:51:56;1.30;;;0.98;;
21251;SDS011;10784;50.578;17.878;2024-02-04T03:54:29;1.58;;;1.10;;
21251;SDS011;10784;50.578;17.878;2024-02-04T03:57:02;3.38;;;1.63;;
21251;SDS011;10784;50.578;17.878;2024-02-04T03:59:36;1.83;;;1.10;;
21251;SDS011;10784;50.578;17.878;2024-02-04T04:02:09;1.83;;;1.50;;
21251;SDS011;10784;50.578;17.878;2024-02-04T04:04:42;1.83;;;1.02;;
21251;SDS011;10784;50.578;17.878;2024-02-04T04:07:16;10.60;;;5.32;;
21251;SDS011;10784;50.578;17.878;2024-02-04T04:09:49;0.63;;;0.63;;
21251;SDS011;10784;50.578;17.878;2024-02-04T04:12:22;1.83;;;1.15;;
21251;SDS011;10784;50.578;17.878;2024-02-04T04:14:55;1.65;;;1.45;;
21251;SDS011;10784;50.578;17.878;2024-02-04T04:17:28;1.85;;;1.60;;
21251;SDS011;10784;50.578;17.878;2024-02-04T04:20:01;2.08;;;1.88;;
21251;SDS011;10784;50.578;17.878;2024-02-04T04:22:34;1.60;;;1.20;;
21251;SDS011;10784;50.578;17.878;2024-02-04T04:25:07;1.13;;;1.02;;
21251;SDS011;10784;50.578;17.878;2024-02-04T04:27:41;1.48;;;0.77;;
21251;SDS011;10784;50.578;17.878;2024-02-04T04:30:14;1.30;;;0.82;;
21251;SDS011;10784;50.578;17.878;2024-02-04T04:32:47;1.25;;;0.98;;
21251;SDS011;10784;50.578;17.878;2024-02-04T04:35:20;1.83;;;0.68;;
21251;SDS011;10784;50.578;17.878;2024-02-04T04:37:53;3.13;;;1.10;;
21251;SDS011;10784;50.578;17.878;2024-02-04T04:40:25;0.70;;;0.70;;
21251;SDS011;10784;50.578;17.878;2024-02-04T04:42:58;0.70;;;0.70;;
21251;SDS011;10784;50.578;17.878;2024-02-04T04:45:32;0.80;;;0.80;;
21251;SDS011;10784;50.578;17.878;2024-02-04T04:48:05;0.50;;;0.50;;
21251;SDS011;10784;50.578;17.878;2024-02-04T04:50:40;1.13;;;0.88;;
21251;SDS011;10784;50.578;17.878;2024-02-04T04:53:13;3.22;;;0.70;;
21251;SDS011;10784;50.578;17.878;2024-02-04T04:55:46;1.65;;;1.13;;
21251;SDS011;10784;50.578;17.878;2024-02-04T04:58:19;3.30;;;0.77;;
21251;SDS011;10784;50.578;17.878;2024-02-04T05:00:52;0.93;;;0.85;;
21251;SDS011;10784;50.578;17.878;2024-02-04T05:03:25;1.92;;;1.55;;
21251;SDS011;10784;50.578;17.878;2024-02-04T05:05:58;0.70;;;0.70;;
21251;SDS011;10784;50.578;17.878;2024-02-04T05:08:33;0.60;;;0.60;;
21251;SDS011;10784;50.578;17.878;2024-02-04T05:11:06;2.78;;;0.82;;
21251;SDS011;10784;50.578;17.878;2024-02-04T05:13:39;0.65;;;0.65;;
21251;SDS011;10784;50.578;17.878;2024-02-04T05:16:12;1.05;;;0.68;;
21251;SDS011;10784;50.578;17.878;2024-02-04T05:18:45;1.20;;;0.98;;
21251;SDS011;10784;50.578;17.878;2024-02-04T05:21:18;1.00;;;0.90;;
21251;SDS011;10784;50.578;17.878;2024-02-04T05:23:51;1.10;;;1.00;;
21251;SDS011;10784;50.578;17.878;2024-02-04T05:26:24;0.70;;;0.60;;
21251;SDS011;10784;50.578;17.878;2024-02-04T05:28:57;1.60;;;0.70;;
21251;SDS011;10784;50.578;17.878;2024-02-04T05:31:29;0.50;;;0.50;;
21251;SDS011;10784;50.578;17.878;2024-02-04T05:34:05;0.93;;;0.63;;
21251;SDS011;10784;50.578;17.878;2024-02-04T05:36:38;0.60;;;0.60;;
21251;SDS011;10784;50.578;17.878;2024-02-04T05:39:12;2.40;;;0.73;;
21251;SDS011;10784;50.578;17.878;2024-02-04T05:41:45;0.80;;;0.80;;
21251;SDS011;10784;50.578;17.878;2024-02-04T05:44:18;0.80;;;0.80;;
21251;SDS011;10784;50.578;17.878;2024-02-04T05:46:51;2.70;;;1.00;;
21251;SDS011;10784;50.578;17.878;2024-02-04T05:49:24;0.85;;;0.85;;
21251;SDS011;10784;50.578;17.878;2024-02-04T05:51:57;0.85;;;0.70;;
21251;SDS011;10784;50.578;17.878;2024-02-04T05:54:30;0.88;;;0.70;;
21251;SDS011;10784;50.578;17.878;2024-02-04T05:57:03;0.55;;;0.55;;
21251;SDS011;10784;50.578;17.878;2024-02-04T05:59:37;6.30;;;0.80;;
21251;SDS011;10784;50.578;17.878;2024-02-04T06:02:11;1.75;;;1.00;;
21251;SDS011;10784;50.578;17.878;2024-02-04T06:04:44;4.95;;;0.95;;
21251;SDS011;10784;50.578;17.878;2024-02-04T06:07:20;1.52;;;0.75;;
21251;SDS011;10784;50.578;17.878;2024-02-04T06:09:53;0.50;;;0.50;;
21251;SDS011;10784;50.578;17.878;2024-02-04T06:12:28;1.02;;;0.90;;
21251;SDS011;10784;50.578;17.878;2024-02-04T06:15:01;1.38;;;1.20;;
21251;SDS011;10784;50.578;17.878;2024-02-04T06:17:34;0.82;;;0.82;;
21251;SDS011;10784;50.578;17.878;2024-02-04T06:20:07;1.25;;;0.82;;
21251;SDS011;10784;50.578;17.878;2024-02-04T06:22:40;5.22;;;0.93;;
21251;SDS011;10784;50.578;17.878;2024-02-04T06:25:13;5.38;;;1.08;;
21251;SDS011;10784;50.578;17.878;2024-02-04T06:27:46;3.80;;;0.80;;
21251;SDS011;10784;50.578;17.878;2024-02-04T06:30:19;1.05;;;1.00;;
21251;SDS011;10784;50.578;17.878;2024-02-04T06:32:52;0.95;;;0.82;;
21251;SDS011;10784;50.578;17.878;2024-02-04T06:35:25;0.73;;;0.73;;
21251;SDS011;10784;50.578;17.878;2024-02-04T06:37:58;5.68;;;1.05;;
21251;SDS011;10784;50.578;17.878;2024-02-04T06:40:33;4.78;;;1.20;;
21251;SDS011;10784;50.578;17.878;2024-02-04T06:43:06;6.53;;;1.15;;
21251;SDS011;10784;50.578;17.878;2024-02-04T06:45:39;5.65;;;1.13;;
21251;SDS011;10784;50.578;17.878;2024-02-04T06:48:12;3.60;;;1.35;;
21251;SDS011;10784;50.578;17.878;2024-02-04T06:50:46;3.05;;;1.13;;
21251;SDS011;10784;50.578;17.878;2024-02-04T06:53:20;2.42;;;0.90;;
21251;SDS011;10784;50.578;17.878;2024-02-04T06:55:53;9.30;;;1.17;;
21251;SDS011;10784;50.578;17.878;2024-02-04T06:58:26;3.67;;;0.80;;
21251;SDS011;10784;50.578;17.878;2024-02-04T07:00:59;6.07;;;1.02;;
21251;SDS011;10784;50.578;17.878;2024-02-04T07:03:32;2.90;;;0.60;;
21251;SDS011;10784;50.578;17.878;2024-02-04T07:06:05;2.50;;;1.10;;
21251;SDS011;10784;50.578;17.878;2024-02-04T07:08:38;2.05;;;1.90;;
21251;SDS011;10784;50.578;17.878;2024-02-04T07:11:11;1.48;;;1.08;;
21251;SDS011;10784;50.578;17.878;2024-02-04T07:13:44;1.83;;;0.90;;
21251;SDS011;10784;50.578;17.878;2024-02-04T07:16:17;5.85;;;1.30;;
21251;SDS011;10784;50.578;17.878;2024-02-04T07:18:50;1.80;;;1.08;;
21251;SDS011;10784;50.578;17.878;2024-02-04T07:21:23;7.18;;;2.38;;
21251;SDS011;10784;50.578;17.878;2024-02-04T07:23:56;6.90;;;1.30;;
21251;SDS011;10784;50.578;17.878;2024-02-04T07:26:29;1.70;;;1.00;;
21251;SDS011;10784;50.578;17.878;2024-02-04T07:29:01;5.85;;;1.63;;
21251;SDS011;10784;50.578;17.878;2024-02-04T07:31:35;2.75;;;1.30;;
21251;SDS011;10784;50.578;17.878;2024-02-04T07:34:10;3.67;;;1.38;;
21251;SDS011;10784;50.578;17.878;2024-02-04T07:36:43;9.18;;;1.48;;
21251;SDS011;10784;50.578;17.878;2024-02-04T07:39:18;0.95;;;0.80;;
21251;SDS011;10784;50.578;17.878;2024-02-04T07:41:51;3.85;;;0.90;;
21251;SDS011;10784;50.578;17.878;2024-02-04T07:44:24;2.90;;;1.38;;
21251;SDS011;10784;50.578;17.878;2024-02-04T07:46:57;2.20;;;1.33;;
21251;SDS011;10784;50.578;17.878;2024-02-04T07:49:30;2.40;;;1.25;;
21251;SDS011;10784;50.578;17.878;2024-02-04T07:52:03;3.20;;;1.15;;
21251;SDS011;10784;50.578;17.878;2024-02-04T07:54:36;3.55;;;0.82;;
21251;SDS011;10784;50.578;17.878;2024-02-04T07:57:09;2.10;;;1.40;;
21251;SDS011;10784;50.578;17.878;2024-02-04T07:59:42;7.57;;;1.65;;
21251;SDS011;10784;50.578;17.878;2024-02-04T08:02:15;6.45;;;1.40;;
21251;SDS011;10784;50.578;17.878;2024-02-04T08:04:48;1.33;;;1.20;;
21251;SDS011;10784;50.578;17.878;2024-02-04T08:07:21;4.32;;;1.48;;
21251;SDS011;10784;50.578;17.878;2024-02-04T08:09:54;1.30;;;1.15;;
21251;SDS011;10784;50.578;17.878;2024-02-04T08:12:27;1.40;;;1.13;;
21251;SDS011;10784;50.578;17.878;2024-02-04T08:15:00;2.15;;;1.25;;
21251;SDS011;10784;50.578;17.878;2024-02-04T08:17:33;4.30;;;1.20;;
21251;SDS011;10784;50.578;17.878;2024-02-04T08:20:06;4.85;;;1.40;;
21251;SDS011;10784;50.578;17.878;2024-02-04T08:22:40;1.23;;;1.20;;
21251;SDS011;10784;50.578;17.878;2024-02-04T08:25:13;7.22;;;1.13;;
21251;SDS011;10784;50.578;17.878;2024-02-04T08:27:46;2.65;;;1.05;;
21251;SDS011;10784;50.578;17.878;2024-02-04T08:30:19;2.25;;;1.63;;
21251;SDS011;10784;50.578;17.878;2024-02-04T08:32:52;8.32;;;1.73;;
21251;SDS011;10784;50.578;17.878;2024-02-04T08:35:25;4.82;;;1.65;;
21251;SDS011;10784;50.578;17.878;2024-02-04T08:37:58;9.07;;;2.15;;
21251;SDS011;10784;50.578;17.878;2024-02-04T08:40:31;1.15;;;0.90;;
21251;SDS011;10784;50.578;17.878;2024-02-04T08:43:04;3.05;;;1.50;;
21251;SDS011;10784;50.578;17.878;2024-02-04T08:45:36;2.53;;;1.27;;
21251;SDS011;10784;50.578;17.878;2024-02-04T08:48:10;3.58;;;1.50;;
21251;SDS011;10784;50.578;17.878;2024-02-04T08:50:43;2.45;;;1.52;;
21251;SDS011;10784;50.578;17.878;2024-02-04T08:53:16;4.03;;;1.33;;
21251;SDS011;10784;50.578;17.878;2024-02-04T08:55:49;10.77;;;1.38;;
21251;SDS011;10784;50.578;17.878;2024-02-04T08:58:24;1.90;;;1.63;;
21251;SDS011;10784;50.578;17.878;2024-02-04T09:00:59;7.20;;;1.92;;
21251;SDS011;10784;50.578;17.878;2024-02-04T09:03:32;2.80;;;1.60;;
21251;SDS011;10784;50.578;17.878;2024-02-04T09:06:05;3.88;;;1.13;;
21251;SDS011;10784;50.578;17.878;2024-02-04T09:08:38;6.38;;;1.50;;
21251;SDS011;10784;50.578;17.878;2024-02-04T09:11:11;1.65;;;1.40;;
21251;SDS011;10784;50.578;17.878;2024-02-04T09:13:50;2.53;;;1.48;;
21251;SDS011;10784;50.578;17.878;2024-02-04T09:16:23;2.78;;;0.90;;
21251;SDS011;10784;50.578;17.878;2024-02-04T09:18:57;2.40;;;1.42;;
21251;SDS011;10784;50.578;17.878;2024-02-04T09:21:30;1.42;;;1.33;;
21251;SDS011;10784;50.578;17.878;2024-02-04T09:24:03;6.82;;;1.45;;
21251;SDS011;10784;50.578;17.878;2024-02-04T09:26:39;5.30;;;1.42;;
21251;SDS011;10784;50.578;17.878;2024-02-04T09:29:12;2.55;;;1.55;;
21251;SDS011;10784;50.578;17.878;2024-02-04T09:31:45;3.88;;;1.30;;
21251;SDS011;10784;50.578;17.878;2024-02-04T09:34:18;3.33;;;1.65;;
21251;SDS011;10784;50.578;17.878;2024-02-04T09:36:53;4.53;;;1.23;;
21251;SDS011;10784;50.578;17.878;2024-02-04T09:39:27;1.33;;;0.70;;
21251;SDS011;10784;50.578;17.878;2024-02-04T09:42:01;2.25;;;1.02;;
21251;SDS011;10784;50.578;17.878;2024-02-04T09:44:34;5.40;;;1.40;;
21251;SDS011;10784;50.578;17.878;2024-02-04T09:47:08;4.47;;;2.00;;
21251;SDS011;10784;50.578;17.878;2024-02-04T09:49:42;3.75;;;1.70;;
21251;SDS011;10784;50.578;17.878;2024-02-04T09:52:17;8.02;;;3.88;;
21251;SDS011;10784;50.578;17.878;2024-02-04T09:54:55;2.72;;;1.30;;
21251;SDS011;10784;50.578;17.878;2024-02-04T09:57:29;1.20;;;0.98;;
21251;SDS011;10784;50.578;17.878;2024-02-04T10:00:03;9.85;;;2.80;;
21251;SDS011;10784;50.578;17.878;2024-02-04T10:02:44;15.15;;;5.00;;
21251;SDS011;10784;50.578;17.878;2024-02-04T10:05:17;5.80;;;2.35;;
21251;SDS011;10784;50.578;17.878;2024-02-04T10:07:50;9.00;;;3.28;;
21251;SDS011;10784;50.578;17.878;2024-02-04T10:10:23;4.70;;;1.83;;
21251;SDS011;10784;50.578;17.878;2024-02-04T10:12:57;5.93;;;2.47;;
21251;SDS011;10784;50.578;17.878;2024-02-04T10:15:30;30.33;;;11.02;;
21251;SDS011;10784;50.578;17.878;2024-02-04T10:18:04;22.10;;;7.28;;
21251;SDS011;10784;50.578;17.878;2024-02-04T10:20:38;12.23;;;4.43;;
21251;SDS011;10784;50.578;17.878;2024-02-04T10:23:11;22.65;;;9.77;;
21251;SDS011;10784;50.578;17.878;2024-02-04T10:25:44;7.10;;;1.98;;
21251;SDS011;10784;50.578;17.878;2024-02-04T10:28:17;5.28;;;2.25;;
21251;SDS011;10784;50.578;17.878;2024-02-04T10:30:50;9.85;;;4.07;;
21251;SDS011;10784;50.578;17.878;2024-02-04T10:33:23;5.97;;;2.95;;
21251;SDS011;10784;50.578;17.878;2024-02-04T10:35:56;8.07;;;2.25;;
21251;SDS011;10784;50.578;17.878;2024-02-04T10:38:32;5.85;;;2.40;;
21251;SDS011;10784;50.578;17.878;2024-02-04T10:41:05;4.30;;;1.52;;
21251;SDS011;10784;50.578;17.878;2024-02-04T10:43:39;10.07;;;3.28;;
21251;SDS011;10784;50.578;17.878;2024-02-04T10:46:13;7.53;;;3.13;;
21251;SDS011;10784;50.578;17.878;2024-02-04T10:48:55;4.05;;;2.28;;
21251;SDS011;10784;50.578;17.878;2024-02-04T10:51:30;8.68;;;2.17;;
21251;SDS011;10784;50.578;17.878;2024-02-04T10:54:03;2.88;;;1.85;;
21251;SDS011;10784;50.578;17.878;2024-02-04T10:56:44;4.00;;;2.60;;
21251;SDS011;10784;50.578;17.878;2024-02-04T10:59:17;5.97;;;2.35;;
21251;SDS011;10784;50.578;17.878;2024-02-04T11:01:52;4.70;;;3.05;;
21251;SDS011;10784;50.578;17.878;2024-02-04T11:04:25;3.42;;;2.00;;
21251;SDS011;10784;50.578;17.878;2024-02-04T11:06:58;5.53;;;3.38;;
21251;SDS011;10784;50.578;17.878;2024-02-04T11:09:32;5.63;;;2.85;;
21251;SDS011;10784;50.578;17.878;2024-02-04T11:12:06;11.32;;;4.60;;
21251;SDS011;10784;50.578;17.878;2024-02-04T11:14:41;7.35;;;4.53;;
21251;SDS011;10784;50.578;17.878;2024-02-04T11:25:39;19.85;;;9.00;;
21251;SDS011;10784;50.578;17.878;2024-02-04T11:28:16;105.03;;;52.20;;
21251;SDS011;10784;50.578;17.878;2024-02-04T11:30:49;13.68;;;7.43;;
21251;SDS011;10784;50.578;17.878;2024-02-04T11:33:23;6.43;;;2.42;;
21251;SDS011;10784;50.578;17.878;2024-02-04T11:36:00;5.63;;;2.80;;
21251;SDS011;10784;50.578;17.878;2024-02-04T11:38:36;12.85;;;4.45;;
21251;SDS011;10784;50.578;17.878;2024-02-04T11:41:09;6.45;;;3.83;;
21251;SDS011;10784;50.578;17.878;2024-02-04T11:43:42;7.03;;;3.22;;
21251;SDS011;10784;50.578;17.878;2024-02-04T11:46:18;7.18;;;4.07;;
21251;SDS011;10784;50.578;17.878;2024-02-04T11:48:54;4.35;;;2.92;;
21251;SDS011;10784;50.578;17.878;2024-02-04T11:51:27;6.82;;;2.55;;
21251;SDS011;10784;50.578;17.878;2024-02-04T11:54:01;7.53;;;2.72;;
21251;SDS011;10784;50.578;17.878;2024-02-04T11:56:37;9.35;;;4.20;;
21251;SDS011;10784;50.578;17.878;2024-02-04T11:59:11;10.05;;;3.65;;
21251;SDS011;10784;50.578;17.878;2024-02-04T12:01:44;14.70;;;6.65;;
21251;SDS011;10784;50.578;17.878;2024-02-04T12:04:18;21.05;;;5.80;;
21251;SDS011;10784;50.578;17.878;2024-02-04T12:06:50;30.33;;;9.38;;
21251;SDS011;10784;50.578;17.878;2024-02-04T12:09:24;32.03;;;11.35;;
21251;SDS011;10784;50.578;17.878;2024-02-04T12:11:59;34.10;;;9.35;;
21251;SDS011;10784;50.578;17.878;2024-02-04T12:14:32;22.25;;;6.63;;
21251;SDS011;10784;50.578;17.878;2024-02-04T12:17:10;9.82;;;3.75;;
21251;SDS011;10784;50.578;17.878;2024-02-04T12:19:43;7.55;;;2.55;;
21251;SDS011;10784;50.578;17.878;2024-02-04T12:22:16;7.15;;;3.20;;
21251;SDS011;10784;50.578;17.878;2024-02-04T12:24:49;5.35;;;2.22;;
21251;SDS011;10784;50.578;17.878;2024-02-04T12:27:22;6.03;;;3.17;;
21251;SDS011;10784;50.578;17.878;2024-02-04T12:29:55;3.78;;;2.92;;
21251;SDS011;10784;50.578;17.878;2024-02-04T12:32:28;9.75;;;2.72;;
21251;SDS011;10784;50.578;17.878;2024-02-04T12:35:01;6.57;;;3.22;;
21251;SDS011;10784;50.578;17.878;2024-02-04T12:37:35;3.90;;;2.75;;
21251;SDS011;10784;50.578;17.878;2024-02-04T12:40:09;5.07;;;2.30;;
21251;SDS011;10784;50.578;17.878;2024-02-04T12:42:44;7.63;;;3.50;;
21251;SDS011;10784;50.578;17.878;2024-02-04T12:45:17;6.38;;;2.70;;
21251;SDS011;10784;50.578;17.878;2024-02-04T12:47:53;9.43;;;3.58;;
21251;SDS011;10784;50.578;17.878;2024-02-04T12:50:27;5.63;;;2.85;;
21251;SDS011;10784;50.578;17.878;2024-02-04T12:53:04;2.50;;;1.77;;
21251;SDS011;10784;50.578;17.878;2024-02-04T12:55:39;3.88;;;2.20;;
21251;SDS011;10784;50.578;17.878;2024-02-04T12:58:12;4.72;;;2.38;;
21251;SDS011;10784;50.578;17.878;2024-02-04T13:00:47;5.93;;;2.97;;
21251;SDS011;10784;50.578;17.878;2024-02-04T13:03:21;3.67;;;2.28;;
21251;SDS011;10784;50.578;17.878;2024-02-04T13:05:57;4.28;;;2.90;;
21251;SDS011;10784;50.578;17.878;2024-02-04T13:08:33;6.22;;;2.95;;
21251;SDS011;10784;50.578;17.878;2024-02-04T13:11:06;8.20;;;4.13;;
21251;SDS011;10784;50.578;17.878;2024-02-04T13:13:39;7.93;;;4.20;;
21251;SDS011;10784;50.578;17.878;2024-02-04T13:16:12;11.25;;;6.15;;
21251;SDS011;10784;50.578;17.878;2024-02-04T13:18:51;21.48;;;9.63;;
21251;SDS011;10784;50.578;17.878;2024-02-04T13:21:24;10.60;;;4.38;;
21251;SDS011;10784;50.578;17.878;2024-02-04T13:23:57;9.77;;;4.47;;
21251;SDS011;10784;50.578;17.878;2024-02-04T13:26:30;4.13;;;2.42;;
21251;SDS011;10784;50.578;17.878;2024-02-04T13:29:03;12.30;;;5.68;;
21251;SDS011;10784;50.578;17.878;2024-02-04T13:31:36;12.38;;;5.90;;
21251;SDS011;10784;50.578;17.878;2024-02-04T13:34:09;10.50;;;4.78;;
21251;SDS011;10784;50.578;17.878;2024-02-04T13:36:43;15.75;;;7.53;;
21251;SDS011;10784;50.578;17.878;2024-02-04T13:39:16;18.77;;;8.43;;
21251;SDS011;10784;50.578;17.878;2024-02-04T13:41:55;7.45;;;4.50;;
21251;SDS011;10784;50.578;17.878;2024-02-04T13:44:28;13.55;;;6.72;;
21251;SDS011;10784;50.578;17.878;2024-02-04T13:47:01;9.98;;;5.13;;
21251;SDS011;10784;50.578;17.878;2024-02-04T13:49:34;6.95;;;3.47;;
21251;SDS011;10784;50.578;17.878;2024-02-04T13:52:07;5.43;;;3.03;;
21251;SDS011;10784;50.578;17.878;2024-02-04T13:54:41;7.40;;;3.83;;
21251;SDS011;10784;50.578;17.878;2024-02-04T13:57:14;2.65;;;1.65;;
21251;SDS011;10784;50.578;17.878;2024-02-04T13:59:47;5.05;;;2.38;;
21251;SDS011;10784;50.578;17.878;2024-02-04T14:02:20;4.75;;;2.28;;
21251;SDS011;10784;50.578;17.878;2024-02-04T14:04:53;6.88;;;3.30;;
21251;SDS011;10784;50.578;17.878;2024-02-04T14:07:26;5.85;;;3.45;;
21251;SDS011;10784;50.578;17.878;2024-02-04T14:09:59;5.88;;;2.40;;
21251;SDS011;10784;50.578;17.878;2024-02-04T14:12:33;8.50;;;3.63;;
21251;SDS011;10784;50.578;17.878;2024-02-04T14:15:05;11.50;;;4.63;;
21251;SDS011;10784;50.578;17.878;2024-02-04T14:17:39;10.23;;;5.35;;
21251;SDS011;10784;50.578;17.878;2024-02-04T14:20:13;10.63;;;3.30;;
21251;SDS011;10784;50.578;17.878;2024-02-04T14:22:46;9.00;;;3.45;;
21251;SDS011;10784;50.578;17.878;2024-02-04T14:25:19;3.92;;;2.70;;
21251;SDS011;10784;50.578;17.878;2024-02-04T14:27:52;3.78;;;2.28;;
21251;SDS011;10784;50.578;17.878;2024-02-04T14:30:25;4.97;;;2.42;;
21251;SDS011;10784;50.578;17.878;2024-02-04T14:33:03;12.95;;;4.82;;
21251;SDS011;10784;50.578;17.878;2024-02-04T14:35:35;25.25;;;7.70;;
21251;SDS011;10784;50.578;17.878;2024-02-04T14:38:10;16.15;;;7.03;;
21251;SDS011;10784;50.578;17.878;2024-02-04T14:40:43;30.55;;;10.63;;
21251;SDS011;10784;50.578;17.878;2024-02-04T14:43:16;55.97;;;15.02;;
21251;SDS011;10784;50.578;17.878;2024-02-04T14:45:50;48.00;;;15.32;;
21251;SDS011;10784;50.578;17.878;2024-02-04T14:48:23;28.38;;;10.70;;
21251;SDS011;10784;50.578;17.878;2024-02-04T14:50:57;38.08;;;11.82;;
21251;SDS011;10784;50.578;17.878;2024-02-04T14:53:32;79.72;;;15.55;;
21251;SDS011;10784;50.578;17.878;2024-02-04T14:56:04;83.30;;;17.10;;
21251;SDS011;10784;50.578;17.878;2024-02-04T14:58:37;67.93;;;14.27;;
21251;SDS011;10784;50.578;17.878;2024-02-04T15:01:10;40.88;;;13.13;;
21251;SDS011;10784;50.578;17.878;2024-02-04T15:03:44;42.58;;;15.20;;
21251;SDS011;10784;50.578;17.878;2024-02-04T15:06:16;17.50;;;6.25;;
21251;SDS011;10784;50.578;17.878;2024-02-04T15:08:50;42.88;;;12.27;;
21251;SDS011;10784;50.578;17.878;2024-02-04T15:11:23;26.35;;;8.77;;
21251;SDS011;10784;50.578;17.878;2024-02-04T15:13:56;21.17;;;8.52;;
21251;SDS011;10784;50.578;17.878;2024-02-04T15:16:30;25.20;;;7.55;;
21251;SDS011;10784;50.578;17.878;2024-02-04T15:19:03;17.00;;;7.15;;
21251;SDS011;10784;50.578;17.878;2024-02-04T15:21:36;19.88;;;7.13;;
21251;SDS011;10784;50.578;17.878;2024-02-04T15:24:10;6.80;;;3.60;;
21251;SDS011;10784;50.578;17.878;2024-02-04T15:26:43;10.48;;;4.10;;
21251;SDS011;10784;50.578;17.878;2024-02-04T15:29:17;6.72;;;2.15;;